createdAt,value
2022-10-17T00:04:26.117Z,3.00
2022-10-17T00:09:28.176Z,3.10
2022-10-17T00:14:30.252Z,2.85
2022-10-17T00:19:32.336Z,1.70
2022-10-17T00:24:34.408Z,1.98
2022-10-17T00:29:36.431Z,3.28
2022-10-17T00:34:38.554Z,2.70
2022-10-17T00:39:40.615Z,2.73
2022-10-17T00:44:43.991Z,3.25
2022-10-17T00:49:47.295Z,2.85
2022-10-17T00:55:02.236Z,3.37
2022-10-17T01:00:08.948Z,4.47
2022-10-17T01:05:12.376Z,3.42
2022-10-17T01:10:15.541Z,4.05
2022-10-17T01:15:42.901Z,2.80
2022-10-17T01:21:15.115Z,3.28
2022-10-17T01:26:40.199Z,2.85
2022-10-17T01:31:48.787Z,2.92
2022-10-17T01:37:14.763Z,3.97
2022-10-17T01:42:38.839Z,4.00
2022-10-17T01:47:42.321Z,3.95
2022-10-17T01:52:59.271Z,3.67
2022-10-17T01:58:11.728Z,3.90
2022-10-17T02:03:18.834Z,4.70
2022-10-17T02:08:42.500Z,3.47
2022-10-17T02:19:09.084Z,3.50
2022-10-17T02:24:42.913Z,3.40
2022-10-17T02:29:58.773Z,3.95
2022-10-17T02:35:03.705Z,2.87
2022-10-17T02:40:08.082Z,3.37
2022-10-17T02:45:15.776Z,3.92
2022-10-17T02:50:21.368Z,3.62
2022-10-17T02:55:31.008Z,3.75
2022-10-17T03:00:33.598Z,3.45
2022-10-17T03:10:38.437Z,3.40
2022-10-17T03:15:41.060Z,3.87
2022-10-17T03:20:43.611Z,3.53
2022-10-17T03:25:46.249Z,3.75
2022-10-17T03:30:49.134Z,4.05
2022-10-17T03:35:51.237Z,2.53
2022-10-17T03:40:57.164Z,3.03
2022-10-17T03:46:00.166Z,3.35
2022-10-17T03:51:05.963Z,4.05
2022-10-17T03:56:12.156Z,4.70
2022-10-17T04:01:16.956Z,3.92
2022-10-17T04:06:21.659Z,2.83
2022-10-17T04:11:24.057Z,2.95
2022-10-17T04:16:28.512Z,2.60
2022-10-17T04:21:31.767Z,3.15
2022-10-17T04:26:36.933Z,3.25
2022-10-17T04:31:39.578Z,2.47
2022-10-17T04:36:42.645Z,3.55
2022-10-17T04:41:45.186Z,3.20
2022-10-17T04:46:47.299Z,4.25
2022-10-17T04:51:49.431Z,3.78
2022-10-17T04:56:51.628Z,4.03
2022-10-17T05:06:56.601Z,3.15
2022-10-17T05:12:03.451Z,2.92
2022-10-17T05:17:08.736Z,3.92
2022-10-17T05:22:11.133Z,4.05
2022-10-17T05:27:14.411Z,3.95
2022-10-17T05:32:16.936Z,3.25
2022-10-17T05:37:19.493Z,3.37
2022-10-17T05:47:25.263Z,3.92
2022-10-17T05:52:27.754Z,7.70
2022-10-17T05:57:31.639Z,4.32
2022-10-17T06:02:34.975Z,6.93
2022-10-17T06:07:37.123Z,4.45
2022-10-17T06:12:40.156Z,3.75
2022-10-17T06:17:42.367Z,3.35
2022-10-17T06:22:45.373Z,3.30
2022-10-17T06:27:48.619Z,2.53
2022-10-17T06:32:52.178Z,2.80
2022-10-17T06:37:55.182Z,2.65
2022-10-17T06:42:58.142Z,3.28
2022-10-17T06:48:02.433Z,3.70
2022-10-17T06:53:09.529Z,2.95
2022-10-17T06:58:13.096Z,3.08
2022-10-17T07:03:15.433Z,3.22
2022-10-17T07:08:17.545Z,3.10
2022-10-17T07:13:20.543Z,3.33
2022-10-17T07:18:22.700Z,3.47
2022-10-17T07:23:24.925Z,5.75
2022-10-17T07:28:28.660Z,5.25
2022-10-17T07:33:32.103Z,4.18
2022-10-17T07:38:34.926Z,3.95
2022-10-17T07:43:37.315Z,5.25
2022-10-17T07:48:41.746Z,5.43
2022-10-17T07:53:48.067Z,3.42
2022-10-17T07:58:52.855Z,2.65
2022-10-17T08:03:54.919Z,2.87
2022-10-17T08:08:57.899Z,3.03
2022-10-17T08:14:00.044Z,3.05
2022-10-17T08:19:02.327Z,3.58
2022-10-17T08:24:05.176Z,3.70
2022-10-17T08:29:14.049Z,2.67
2022-10-17T08:34:16.261Z,2.67
2022-10-17T08:39:18.364Z,2.95
2022-10-17T08:44:39.735Z,2.42
2022-10-17T08:49:47.056Z,2.62
2022-10-17T08:54:50.665Z,3.53
2022-10-17T08:59:54.249Z,2.87
2022-10-17T09:05:26.508Z,3.03
2022-10-17T09:10:52.481Z,3.40
2022-10-17T09:15:54.608Z,3.20
2022-10-17T09:21:15.702Z,3.95
2022-10-17T09:26:17.798Z,3.35
2022-10-17T09:31:24.010Z,4.72
2022-10-17T09:36:29.768Z,3.30
2022-10-17T09:41:45.559Z,3.85
2022-10-17T09:47:19.957Z,4.82
2022-10-17T09:52:33.784Z,3.00
2022-10-17T09:57:55.668Z,3.10
2022-10-17T10:03:18.040Z,3.05
2022-10-17T10:08:28.407Z,5.55
2022-10-17T10:13:32.390Z,3.42
2022-10-17T10:18:36.248Z,4.35
2022-10-17T10:23:40.782Z,3.50
2022-10-17T10:28:53.008Z,3.60
2022-10-17T10:33:57.511Z,3.93
2022-10-17T10:39:02.514Z,3.17
2022-10-17T10:44:12.419Z,2.67
2022-10-17T10:49:31.070Z,3.47
2022-10-17T11:00:00.271Z,2.80
2022-10-17T11:05:19.561Z,2.85
2022-10-17T11:10:40.467Z,2.60
2022-10-17T11:16:01.984Z,2.17
2022-10-17T11:21:36.981Z,2.05
2022-10-17T11:26:49.067Z,2.37
2022-10-17T11:31:55.127Z,2.77
2022-10-17T11:37:02.530Z,2.35
2022-10-17T11:42:10.362Z,2.10
2022-10-17T11:47:30.720Z,2.47
2022-10-17T11:52:56.544Z,2.08
2022-10-17T11:58:22.582Z,2.00
2022-10-17T12:03:46.618Z,1.98
2022-10-17T12:09:11.844Z,2.37
2022-10-17T12:14:47.969Z,1.83
2022-10-17T12:19:50.122Z,2.30
2022-10-17T12:25:03.410Z,1.30
2022-10-17T12:30:27.412Z,2.28
2022-10-17T12:35:31.579Z,1.70
2022-10-17T12:40:36.343Z,1.52
2022-10-17T12:45:55.799Z,1.65
2022-10-17T12:56:41.448Z,1.90
2022-10-17T13:01:48.651Z,1.67
2022-10-17T13:06:58.712Z,1.67
2022-10-17T13:12:04.484Z,1.42
2022-10-17T13:17:20.405Z,2.15
2022-10-17T13:22:28.891Z,1.55
2022-10-17T13:27:33.667Z,1.92
2022-10-17T13:32:39.283Z,1.75
2022-10-17T13:37:43.636Z,1.30
2022-10-17T13:42:46.174Z,1.65
2022-10-17T13:47:48.833Z,1.90
2022-10-17T13:53:18.008Z,1.90
2022-10-17T13:58:20.409Z,1.80
2022-10-17T14:03:23.160Z,1.60
2022-10-17T14:08:25.748Z,2.08
2022-10-17T14:13:33.886Z,1.83
2022-10-17T14:18:37.797Z,2.17
2022-10-17T14:23:43.555Z,1.90
2022-10-17T14:29:03.195Z,1.50
2022-10-17T14:34:05.710Z,1.95
2022-10-17T14:39:20.665Z,1.48
2022-10-17T14:44:26.904Z,2.17
2022-10-17T14:49:35.215Z,1.90
2022-10-17T14:54:38.207Z,1.70
2022-10-17T14:59:53.823Z,2.28
2022-10-17T15:04:57.113Z,1.95
2022-10-17T15:15:01.371Z,1.85
2022-10-17T15:20:11.932Z,2.92
2022-10-17T15:25:14.065Z,1.60
2022-10-17T15:30:32.295Z,2.58
2022-10-17T15:35:34.537Z,2.85
2022-10-17T15:40:37.018Z,1.80
2022-10-17T15:45:39.176Z,1.80
2022-10-17T15:50:41.350Z,2.67
2022-10-17T15:55:43.465Z,2.70
2022-10-17T16:00:46.623Z,2.30
2022-10-17T16:05:48.985Z,2.37
2022-10-17T16:10:51.662Z,2.05
2022-10-17T16:15:53.848Z,2.08
2022-10-17T16:20:56.101Z,2.33
2022-10-17T16:25:58.183Z,2.28
2022-10-17T16:31:00.326Z,2.67
2022-10-17T16:36:02.479Z,1.85
2022-10-17T16:41:04.799Z,2.30
2022-10-17T16:46:06.992Z,2.90
2022-10-17T16:51:09.405Z,2.40
2022-10-17T17:01:20.769Z,3.37
2022-10-17T17:06:26.633Z,2.25
2022-10-17T17:11:29.314Z,2.28
2022-10-17T17:16:32.921Z,2.60
2022-10-17T17:21:35.846Z,2.90
2022-10-17T17:26:38.872Z,1.95
2022-10-17T17:31:41.152Z,2.83
2022-10-17T17:36:43.696Z,2.78
2022-10-17T17:41:45.820Z,2.33
2022-10-17T17:46:47.984Z,3.12
2022-10-17T17:51:50.104Z,2.90
2022-10-17T17:56:52.248Z,3.67
2022-10-17T18:01:54.364Z,2.92
2022-10-17T18:06:56.484Z,3.58
2022-10-17T18:11:58.581Z,3.42
2022-10-17T18:17:00.701Z,3.70
2022-10-17T18:22:02.928Z,3.58
2022-10-17T18:27:05.083Z,3.28
2022-10-17T18:32:07.282Z,3.30
2022-10-17T18:37:09.453Z,3.12
2022-10-17T18:42:11.884Z,3.75
2022-10-17T18:47:14.044Z,4.28
2022-10-17T18:52:16.222Z,4.32
2022-10-17T18:57:21.423Z,3.85
2022-10-17T19:02:26.872Z,4.78
2022-10-17T19:07:29.252Z,5.37
2022-10-17T19:12:31.617Z,4.28
2022-10-17T19:17:33.845Z,4.75
2022-10-17T19:22:36.099Z,5.53
2022-10-17T19:27:39.317Z,4.35
2022-10-17T19:32:41.502Z,4.32
2022-10-17T19:37:43.549Z,4.18
2022-10-17T19:42:45.726Z,5.07
2022-10-17T19:47:47.858Z,5.70
2022-10-17T19:52:51.982Z,5.37
2022-10-17T19:57:54.173Z,5.25
2022-10-17T20:02:56.726Z,3.83
2022-10-17T20:13:02.305Z,5.18
2022-10-17T20:18:05.887Z,3.87
2022-10-17T20:23:07.982Z,3.45
2022-10-17T20:28:10.117Z,3.30
2022-10-17T20:33:13.783Z,3.12
2022-10-17T20:38:17.229Z,2.72
2022-10-17T20:43:19.315Z,2.80
2022-10-17T20:48:21.898Z,2.67
2022-10-17T20:53:36.683Z,2.90
2022-10-17T20:58:39.706Z,2.72
2022-10-17T21:03:45.579Z,2.95
2022-10-17T21:08:49.970Z,2.83
2022-10-17T21:14:11.323Z,3.10
2022-10-17T21:19:14.530Z,2.85
2022-10-17T21:24:19.097Z,3.15
2022-10-17T21:29:22.427Z,2.22
2022-10-17T21:34:25.271Z,3.08
2022-10-17T21:39:27.371Z,2.85
2022-10-17T21:44:29.545Z,3.00
2022-10-17T21:49:31.649Z,2.87
2022-10-17T21:54:33.728Z,2.85
2022-10-17T21:59:36.263Z,2.65
2022-10-17T22:04:38.329Z,3.47
2022-10-17T22:09:40.386Z,4.07
2022-10-17T22:14:44.172Z,3.25
2022-10-17T22:19:47.382Z,3.45
2022-10-17T22:24:49.497Z,3.35
2022-10-17T22:29:51.519Z,3.08
2022-10-17T22:34:53.573Z,2.70
2022-10-17T22:39:55.642Z,3.28
2022-10-17T22:44:57.708Z,3.00
2022-10-17T22:49:59.758Z,2.20
2022-10-17T22:55:01.893Z,2.15
2022-10-17T23:00:06.197Z,3.55
2022-10-17T23:05:08.690Z,3.67
2022-10-17T23:10:10.742Z,3.78
2022-10-17T23:15:12.813Z,3.53
2022-10-17T23:20:14.960Z,4.00
2022-10-17T23:25:17.184Z,2.72
2022-10-17T23:30:19.685Z,4.00
2022-10-17T23:35:21.705Z,4.00
2022-10-17T23:40:24.189Z,3.33
2022-10-17T23:45:26.333Z,4.15
2022-10-17T23:50:28.502Z,3.37
2022-10-17T23:55:30.815Z,3.50
